RSL46P LFPO-LOWW
Flight info
| Callsign | RSL46P |
|---|---|
| Flight time | 1h 53m |
| Altitude | 33000 |
| Route | BUBLI DCT LUVAL DCT BEGAR DCT TRA DCT GAMSA DCT TULSI DCT INPUL DCT NEMAL NEMAL2W |
| Aircraft | B738/M-SDE2E3FGHIRWXY/LB1 |
Departure
| Time | 2026-05-04 01:05 |
|---|---|
| Airport | Paris-Orly Airport (LFPO) |
Arrival
| Time | 2026-05-04 02:58 |
|---|---|
| Airport | Vienna International Airport (LOWW) |
| Time | Latitude | Longitude | Altitude | Speed | Heading |
|---|---|---|---|---|---|
| 2026-05-04 00:51 | 48.72627 | 2.35944 | 293 ft | 0 kts | 0° |
| 2026-05-04 00:57 | 48.72626 | 2.35944 | 293 ft | 2 kts | 0° |
| 2026-05-04 00:57 | 48.72601 | 2.35944 | 294 ft | 4 kts | 359° |
| 2026-05-04 00:57 | 48.72574 | 2.35943 | 296 ft | 4 kts | 6° |
| 2026-05-04 00:58 | 48.72547 | 2.35939 | 296 ft | 4 kts | 5° |
| 2026-05-04 00:58 | 48.72521 | 2.35935 | 293 ft | 4 kts | 3° |
| 2026-05-04 00:58 | 48.72494 | 2.35935 | 293 ft | 4 kts | 352° |
| 2026-05-04 00:58 | 48.72471 | 2.35946 | 298 ft | 4 kts | 302° |
| 2026-05-04 00:59 | 48.72468 | 2.35955 | 293 ft | 1 kts | 277° |
| 2026-05-04 01:01 | 48.72468 | 2.35950 | 296 ft | 2 kts | 277° |
| 2026-05-04 01:01 | 48.72473 | 2.35895 | 293 ft | 9 kts | 276° |
| 2026-05-04 01:01 | 48.72478 | 2.35774 | 293 ft | 13 kts | 264° |
| 2026-05-04 01:02 | 48.72455 | 2.35634 | 295 ft | 14 kts | 254° |
| 2026-05-04 01:02 | 48.72430 | 2.35499 | 297 ft | 13 kts | 254° |
| 2026-05-04 01:02 | 48.72365 | 2.35433 | 293 ft | 13 kts | 161° |
| 2026-05-04 01:02 | 48.72312 | 2.35535 | 296 ft | 13 kts | 113° |
| 2026-05-04 01:03 | 48.72263 | 2.35614 | 295 ft | 13 kts | 194° |
| 2026-05-04 01:03 | 48.72174 | 2.35623 | 292 ft | 13 kts | 164° |
| 2026-05-04 01:03 | 48.72085 | 2.35667 | 293 ft | 13 kts | 154° |
| 2026-05-04 01:03 | 48.72024 | 2.35764 | 295 ft | 13 kts | 120° |
| 2026-05-04 01:04 | 48.71982 | 2.35880 | 293 ft | 12 kts | 118° |
| 2026-05-04 01:04 | 48.71968 | 2.36001 | 293 ft | 12 kts | 76° |
| 2026-05-04 01:04 | 48.72027 | 2.36325 | 295 ft | 68 kts | 74° |
| 2026-05-04 01:04 | 48.72224 | 2.37395 | 294 ft | 140 kts | 74° |
| 2026-05-04 01:05 | 48.72530 | 2.39048 | 576 ft | 177 kts | 73° |
| 2026-05-04 01:05 | 48.72935 | 2.40990 | 1019 ft | 210 kts | 74° |
| 2026-05-04 01:05 | 48.73339 | 2.43229 | 1522 ft | 229 kts | 75° |
| 2026-05-04 01:05 | 48.73773 | 2.45635 | 2139 ft | 246 kts | 75° |
| 2026-05-04 01:06 | 48.74163 | 2.48278 | 2621 ft | 264 kts | 86° |
| 2026-05-04 01:06 | 48.74234 | 2.51094 | 3431 ft | 269 kts | 90° |
| 2026-05-04 01:06 | 48.74292 | 2.53931 | 4305 ft | 271 kts | 90° |
| 2026-05-04 01:06 | 48.74398 | 2.56815 | 5132 ft | 276 kts | 85° |
| 2026-05-04 01:07 | 48.74633 | 2.59728 | 5946 ft | 281 kts | 84° |
| 2026-05-04 01:07 | 48.74888 | 2.62687 | 6715 ft | 285 kts | 84° |
| 2026-05-04 01:07 | 48.75140 | 2.65678 | 7492 ft | 288 kts | 85° |
| 2026-05-04 01:07 | 48.75389 | 2.68717 | 8262 ft | 292 kts | 85° |
| 2026-05-04 01:08 | 48.75632 | 2.71794 | 9037 ft | 296 kts | 85° |
| 2026-05-04 01:08 | 48.75872 | 2.74909 | 9808 ft | 300 kts | 85° |
| 2026-05-04 01:08 | 48.76114 | 2.78087 | 10380 ft | 311 kts | 85° |
| 2026-05-04 01:08 | 48.76367 | 2.81425 | 10553 ft | 334 kts | 85° |
| 2026-05-04 01:09 | 48.76641 | 2.85045 | 10751 ft | 356 kts | 85° |
| 2026-05-04 01:09 | 48.76931 | 2.88839 | 11231 ft | 367 kts | 85° |
| 2026-05-04 01:09 | 48.77225 | 2.92699 | 11924 ft | 370 kts | 85° |
| 2026-05-04 01:09 | 48.77518 | 2.96588 | 12669 ft | 373 kts | 86° |
| 2026-05-04 01:10 | 48.77868 | 3.00505 | 13384 ft | 377 kts | 83° |
| 2026-05-04 01:10 | 48.78329 | 3.04437 | 14034 ft | 381 kts | 82° |
| 2026-05-04 01:10 | 48.78830 | 3.08423 | 14591 ft | 387 kts | 82° |
| 2026-05-04 01:10 | 48.79336 | 3.12457 | 15143 ft | 392 kts | 82° |
| 2026-05-04 01:11 | 48.79839 | 3.16546 | 15691 ft | 398 kts | 82° |
| 2026-05-04 01:11 | 48.80338 | 3.20698 | 16243 ft | 403 kts | 82° |
| 2026-05-04 01:11 | 48.80837 | 3.24907 | 16804 ft | 408 kts | 82° |
| 2026-05-04 01:11 | 48.81339 | 3.29170 | 17346 ft | 413 kts | 82° |
| 2026-05-04 01:12 | 48.81845 | 3.33490 | 17888 ft | 418 kts | 82° |
| 2026-05-04 01:12 | 48.82285 | 3.37876 | 18392 ft | 422 kts | 89° |
| 2026-05-04 01:12 | 48.82171 | 3.42260 | 18922 ft | 420 kts | 99° |
| 2026-05-04 01:12 | 48.81856 | 3.46704 | 19577 ft | 418 kts | 100° |
| 2026-05-04 01:13 | 48.81523 | 3.51029 | 20191 ft | 417 kts | 100° |
| 2026-05-04 01:13 | 48.81195 | 3.55381 | 20930 ft | 414 kts | 100° |
| 2026-05-04 01:13 | 48.80883 | 3.59753 | 21416 ft | 418 kts | 100° |
| 2026-05-04 01:13 | 48.80580 | 3.64169 | 21816 ft | 423 kts | 100° |
| 2026-05-04 01:14 | 48.80285 | 3.68627 | 22293 ft | 426 kts | 100° |
| 2026-05-04 01:14 | 48.79993 | 3.73108 | 22808 ft | 428 kts | 100° |
| 2026-05-04 01:14 | 48.79701 | 3.77606 | 23303 ft | 430 kts | 100° |
| 2026-05-04 01:14 | 48.79406 | 3.82130 | 23717 ft | 432 kts | 100° |
| 2026-05-04 01:15 | 48.79106 | 3.86686 | 24051 ft | 436 kts | 100° |
| 2026-05-04 01:15 | 48.78801 | 3.91291 | 24377 ft | 440 kts | 100° |
| 2026-05-04 01:15 | 48.78492 | 3.95920 | 24718 ft | 443 kts | 100° |
| 2026-05-04 01:15 | 48.78180 | 4.00576 | 25059 ft | 446 kts | 101° |
| 2026-05-04 01:16 | 48.77864 | 4.05268 | 25388 ft | 449 kts | 101° |
| 2026-05-04 01:16 | 48.77542 | 4.09991 | 25719 ft | 452 kts | 101° |
| 2026-05-04 01:16 | 48.76991 | 4.14657 | 25988 ft | 447 kts | 115° |
| 2026-05-04 01:16 | 48.75595 | 4.18785 | 26304 ft | 437 kts | 130° |
| 2026-05-04 01:17 | 48.73824 | 4.22529 | 26678 ft | 437 kts | 131° |
| 2026-05-04 01:17 | 48.72023 | 4.26261 | 26976 ft | 440 kts | 132° |
| 2026-05-04 01:17 | 48.70234 | 4.29966 | 27257 ft | 443 kts | 132° |
| 2026-05-04 01:17 | 48.68417 | 4.33754 | 27556 ft | 446 kts | 131° |
| 2026-05-04 01:18 | 48.66602 | 4.37565 | 27798 ft | 449 kts | 131° |
| 2026-05-04 01:18 | 48.64775 | 4.41419 | 28075 ft | 452 kts | 131° |
| 2026-05-04 01:18 | 48.62945 | 4.45291 | 28405 ft | 453 kts | 131° |
| 2026-05-04 01:18 | 48.61106 | 4.49183 | 28722 ft | 455 kts | 131° |
| 2026-05-04 01:19 | 48.59264 | 4.53077 | 29017 ft | 457 kts | 131° |
| 2026-05-04 01:19 | 48.57412 | 4.56986 | 29292 ft | 459 kts | 131° |
| 2026-05-04 01:19 | 48.55550 | 4.60908 | 29559 ft | 460 kts | 131° |
| 2026-05-04 01:19 | 48.53683 | 4.64836 | 29893 ft | 461 kts | 131° |
| 2026-05-04 01:20 | 48.51813 | 4.68765 | 30283 ft | 459 kts | 131° |
| 2026-05-04 01:20 | 48.49958 | 4.72660 | 30605 ft | 458 kts | 131° |
| 2026-05-04 01:20 | 48.48096 | 4.76558 | 30849 ft | 458 kts | 131° |
| 2026-05-04 01:20 | 48.46229 | 4.80459 | 31085 ft | 459 kts | 131° |
| 2026-05-04 01:21 | 48.44360 | 4.84360 | 31376 ft | 459 kts | 131° |
| 2026-05-04 01:21 | 48.42516 | 4.88207 | 31683 ft | 458 kts | 131° |
| 2026-05-04 01:21 | 48.40649 | 4.92094 | 31960 ft | 458 kts | 131° |
| 2026-05-04 01:21 | 48.38778 | 4.95982 | 32214 ft | 459 kts | 131° |
| 2026-05-04 01:22 | 48.36909 | 4.99863 | 32489 ft | 458 kts | 131° |
| 2026-05-04 01:22 | 48.35039 | 5.03743 | 32781 ft | 458 kts | 132° |
| 2026-05-04 01:22 | 48.33167 | 5.07618 | 33039 ft | 458 kts | 132° |
| 2026-05-04 01:22 | 48.31302 | 5.11502 | 33269 ft | 460 kts | 129° |
| 2026-05-04 01:23 | 48.29712 | 5.15713 | 33476 ft | 467 kts | 120° |
| 2026-05-04 01:23 | 48.28559 | 5.20299 | 33800 ft | 472 kts | 110° |
| 2026-05-04 01:23 | 48.27800 | 5.25111 | 34097 ft | 471 kts | 106° |
| 2026-05-04 01:23 | 48.27117 | 5.29910 | 34310 ft | 472 kts | 107° |
| 2026-05-04 01:24 | 48.26441 | 5.34744 | 34447 ft | 474 kts | 107° |
| 2026-05-04 01:24 | 48.25756 | 5.39591 | 34622 ft | 475 kts | 107° |
| 2026-05-04 01:24 | 48.25067 | 5.44373 | 34867 ft | 473 kts | 107° |
| 2026-05-04 01:24 | 48.24360 | 5.49184 | 35144 ft | 471 kts | 107° |
| 2026-05-04 01:25 | 48.23647 | 5.53965 | 35381 ft | 470 kts | 107° |
| 2026-05-04 01:25 | 48.22927 | 5.58738 | 35564 ft | 470 kts | 107° |
| 2026-05-04 01:25 | 48.22203 | 5.63511 | 35802 ft | 468 kts | 107° |
| 2026-05-04 01:25 | 48.21478 | 5.68269 | 36012 ft | 468 kts | 108° |
| 2026-05-04 01:26 | 48.20751 | 5.73027 | 36183 ft | 468 kts | 108° |
| 2026-05-04 01:26 | 48.20022 | 5.77784 | 36369 ft | 468 kts | 108° |
| 2026-05-04 01:26 | 48.19292 | 5.82534 | 36573 ft | 467 kts | 108° |
| 2026-05-04 01:26 | 48.18562 | 5.87277 | 36761 ft | 467 kts | 108° |
| 2026-05-04 01:27 | 48.17832 | 5.92012 | 36929 ft | 467 kts | 108° |
| 2026-05-04 01:27 | 48.16607 | 5.99913 | 36989 ft | 470 kts | 107° |
| 2026-05-04 01:28 | 48.15117 | 6.09472 | 37009 ft | 470 kts | 107° |
| 2026-05-04 01:28 | 48.13626 | 6.18997 | 37028 ft | 469 kts | 107° |
| 2026-05-04 01:29 | 48.12130 | 6.28497 | 37022 ft | 469 kts | 108° |
| 2026-05-04 01:29 | 48.10625 | 6.37991 | 37026 ft | 468 kts | 108° |
| 2026-05-04 01:30 | 48.09117 | 6.47446 | 37017 ft | 467 kts | 107° |
| 2026-05-04 01:30 | 48.07603 | 6.56891 | 37021 ft | 467 kts | 107° |
| 2026-05-04 01:31 | 48.06092 | 6.66258 | 37023 ft | 466 kts | 107° |
| 2026-05-04 01:31 | 48.04555 | 6.75734 | 37031 ft | 466 kts | 107° |
| 2026-05-04 01:32 | 48.03027 | 6.85105 | 37016 ft | 467 kts | 107° |
| 2026-05-04 01:32 | 48.01481 | 6.94533 | 37036 ft | 467 kts | 107° |
| 2026-05-04 01:33 | 47.99925 | 7.03973 | 37021 ft | 468 kts | 107° |
| 2026-05-04 01:33 | 47.98361 | 7.13399 | 37039 ft | 469 kts | 107° |
| 2026-05-04 01:34 | 47.96786 | 7.22847 | 37015 ft | 469 kts | 107° |
| 2026-05-04 01:34 | 47.95201 | 7.32304 | 37025 ft | 470 kts | 107° |
| 2026-05-04 01:35 | 47.93606 | 7.41768 | 37034 ft | 470 kts | 107° |
| 2026-05-04 01:35 | 47.92004 | 7.51231 | 37032 ft | 471 kts | 107° |
| 2026-05-04 01:36 | 47.90315 | 7.60660 | 37029 ft | 469 kts | 112° |
| 2026-05-04 01:36 | 47.88058 | 7.69753 | 37044 ft | 468 kts | 114° |
| 2026-05-04 01:37 | 47.85683 | 7.78778 | 37046 ft | 468 kts | 114° |
| 2026-05-04 01:37 | 47.83347 | 7.87830 | 37042 ft | 469 kts | 114° |
| 2026-05-04 01:38 | 47.81052 | 7.96840 | 37061 ft | 468 kts | 114° |
| 2026-05-04 01:38 | 47.78748 | 8.05882 | 37051 ft | 467 kts | 114° |
| 2026-05-04 01:39 | 47.76437 | 8.14911 | 37066 ft | 466 kts | 114° |
| 2026-05-04 01:39 | 47.74120 | 8.23913 | 37063 ft | 466 kts | 114° |
| 2026-05-04 01:40 | 47.71796 | 8.32913 | 37059 ft | 466 kts | 114° |
| 2026-05-04 01:40 | 47.69471 | 8.41887 | 37047 ft | 465 kts | 114° |
| 2026-05-04 01:41 | 47.67260 | 8.50921 | 37065 ft | 466 kts | 111° |
| 2026-05-04 01:41 | 47.65233 | 8.60062 | 37064 ft | 466 kts | 111° |
| 2026-05-04 01:42 | 47.63214 | 8.69125 | 37073 ft | 466 kts | 111° |
| 2026-05-04 01:42 | 47.61145 | 8.78228 | 37068 ft | 466 kts | 111° |
| 2026-05-04 01:43 | 47.59052 | 8.87339 | 37066 ft | 466 kts | 111° |
| 2026-05-04 01:43 | 47.56952 | 8.96429 | 37067 ft | 467 kts | 111° |
| 2026-05-04 01:44 | 47.54843 | 9.05531 | 37066 ft | 467 kts | 111° |
| 2026-05-04 01:44 | 47.52724 | 9.14636 | 37065 ft | 467 kts | 112° |
| 2026-05-04 01:45 | 47.50614 | 9.23670 | 37051 ft | 468 kts | 111° |
| 2026-05-04 01:45 | 47.47410 | 9.37311 | 37068 ft | 468 kts | 111° |
| 2026-05-04 01:46 | 47.45262 | 9.46412 | 37045 ft | 469 kts | 112° |
| 2026-05-04 01:46 | 47.43110 | 9.55497 | 37048 ft | 468 kts | 112° |
| 2026-05-04 01:47 | 47.41538 | 9.64819 | 37062 ft | 471 kts | 96° |
| 2026-05-04 01:47 | 47.41997 | 9.74467 | 37054 ft | 473 kts | 79° |
| 2026-05-04 01:48 | 47.43440 | 9.83959 | 37049 ft | 473 kts | 78° |
| 2026-05-04 01:48 | 47.44898 | 9.93442 | 37055 ft | 473 kts | 78° |
| 2026-05-04 01:49 | 47.46301 | 10.02941 | 37055 ft | 473 kts | 78° |
| 2026-05-04 01:49 | 47.47653 | 10.12338 | 37095 ft | 468 kts | 79° |
| 2026-05-04 01:50 | 47.49000 | 10.21789 | 37069 ft | 471 kts | 79° |
| 2026-05-04 01:50 | 47.50345 | 10.31284 | 37065 ft | 473 kts | 79° |
| 2026-05-04 01:51 | 47.51690 | 10.40829 | 37073 ft | 475 kts | 79° |
| 2026-05-04 01:51 | 47.53034 | 10.50418 | 37056 ft | 476 kts | 79° |
| 2026-05-04 01:52 | 47.54370 | 10.60011 | 37063 ft | 476 kts | 79° |
| 2026-05-04 01:52 | 47.55694 | 10.69589 | 37065 ft | 474 kts | 79° |
| 2026-05-04 01:53 | 47.57007 | 10.79146 | 37090 ft | 473 kts | 79° |
| 2026-05-04 01:53 | 47.58311 | 10.88702 | 37082 ft | 472 kts | 79° |
| 2026-05-04 01:54 | 47.59602 | 10.98221 | 37087 ft | 471 kts | 79° |
| 2026-05-04 01:54 | 47.60884 | 11.07741 | 36718 ft | 475 kts | 79° |
| 2026-05-04 01:55 | 47.61528 | 11.12548 | 36208 ft | 474 kts | 79° |
| 2026-05-04 01:55 | 47.62167 | 11.17331 | 35612 ft | 473 kts | 79° |
| 2026-05-04 01:55 | 47.62805 | 11.22122 | 34998 ft | 474 kts | 79° |
| 2026-05-04 01:55 | 47.63441 | 11.26918 | 34385 ft | 475 kts | 79° |
| 2026-05-04 01:56 | 47.64076 | 11.31724 | 33856 ft | 473 kts | 79° |
| 2026-05-04 01:56 | 47.64705 | 11.36495 | 33351 ft | 470 kts | 79° |
| 2026-05-04 01:56 | 47.65327 | 11.41229 | 32874 ft | 466 kts | 79° |
| 2026-05-04 01:56 | 47.65943 | 11.45930 | 32422 ft | 462 kts | 79° |
| 2026-05-04 01:57 | 47.66550 | 11.50582 | 31981 ft | 458 kts | 79° |
| 2026-05-04 01:57 | 47.67151 | 11.55210 | 31547 ft | 455 kts | 79° |
| 2026-05-04 01:57 | 47.67747 | 11.59809 | 31112 ft | 452 kts | 79° |
| 2026-05-04 01:57 | 47.68330 | 11.64323 | 30698 ft | 449 kts | 79° |
| 2026-05-04 01:58 | 47.68914 | 11.68858 | 30252 ft | 447 kts | 79° |
| 2026-05-04 01:58 | 47.69495 | 11.73374 | 29764 ft | 444 kts | 79° |
| 2026-05-04 01:58 | 47.70068 | 11.77853 | 29295 ft | 440 kts | 79° |
| 2026-05-04 01:58 | 47.70662 | 11.82312 | 28818 ft | 437 kts | 78° |
| 2026-05-04 01:59 | 47.71305 | 11.86714 | 28320 ft | 434 kts | 78° |
| 2026-05-04 01:59 | 47.71964 | 11.91066 | 27892 ft | 430 kts | 77° |
| 2026-05-04 01:59 | 47.72619 | 11.95374 | 27468 ft | 425 kts | 77° |
| 2026-05-04 01:59 | 47.73263 | 11.99643 | 27060 ft | 421 kts | 78° |
| 2026-05-04 02:00 | 47.73894 | 12.03873 | 26624 ft | 418 kts | 78° |
| 2026-05-04 02:00 | 47.74517 | 12.08086 | 26195 ft | 415 kts | 78° |
| 2026-05-04 02:00 | 47.75129 | 12.12258 | 25784 ft | 412 kts | 78° |
| 2026-05-04 02:00 | 47.75727 | 12.16348 | 25376 ft | 409 kts | 78° |
| 2026-05-04 02:01 | 47.76326 | 12.20464 | 24967 ft | 406 kts | 78° |
| 2026-05-04 02:01 | 47.76921 | 12.24565 | 24566 ft | 404 kts | 78° |
| 2026-05-04 02:01 | 47.77509 | 12.28626 | 24153 ft | 401 kts | 78° |
| 2026-05-04 02:01 | 47.78093 | 12.32671 | 23746 ft | 399 kts | 78° |
| 2026-05-04 02:02 | 47.78672 | 12.36697 | 23292 ft | 397 kts | 78° |
| 2026-05-04 02:02 | 47.79247 | 12.40697 | 22832 ft | 394 kts | 78° |
| 2026-05-04 02:02 | 47.79816 | 12.44667 | 22407 ft | 391 kts | 78° |
| 2026-05-04 02:02 | 47.80381 | 12.48623 | 22005 ft | 387 kts | 78° |
| 2026-05-04 02:03 | 47.80936 | 12.52518 | 21612 ft | 384 kts | 78° |
| 2026-05-04 02:03 | 47.81487 | 12.56391 | 21206 ft | 381 kts | 79° |
| 2026-05-04 02:03 | 47.82032 | 12.60237 | 20813 ft | 379 kts | 79° |
| 2026-05-04 02:03 | 47.82567 | 12.64014 | 20426 ft | 376 kts | 79° |
| 2026-05-04 02:04 | 47.83103 | 12.67812 | 20039 ft | 374 kts | 79° |
| 2026-05-04 02:04 | 47.83635 | 12.71586 | 19657 ft | 371 kts | 79° |
| 2026-05-04 02:04 | 47.84154 | 12.75332 | 19297 ft | 369 kts | 81° |
| 2026-05-04 02:04 | 47.84589 | 12.79058 | 19019 ft | 363 kts | 82° |
| 2026-05-04 02:05 | 47.84973 | 12.82762 | 18645 ft | 361 kts | 83° |
| 2026-05-04 02:05 | 47.85343 | 12.86456 | 18273 ft | 359 kts | 83° |
| 2026-05-04 02:05 | 47.85707 | 12.90074 | 17853 ft | 358 kts | 83° |
| 2026-05-04 02:05 | 47.86079 | 12.93736 | 17448 ft | 356 kts | 83° |
| 2026-05-04 02:06 | 47.86452 | 12.97368 | 17064 ft | 354 kts | 83° |
| 2026-05-04 02:06 | 47.86825 | 13.00976 | 16676 ft | 351 kts | 83° |
| 2026-05-04 02:06 | 47.87196 | 13.04563 | 16301 ft | 349 kts | 83° |
| 2026-05-04 02:06 | 47.87565 | 13.08130 | 15937 ft | 347 kts | 83° |
| 2026-05-04 02:07 | 47.87932 | 13.11679 | 15561 ft | 346 kts | 83° |
| 2026-05-04 02:07 | 47.88296 | 13.15214 | 15190 ft | 344 kts | 83° |
| 2026-05-04 02:07 | 47.88657 | 13.18732 | 14815 ft | 343 kts | 83° |
| 2026-05-04 02:07 | 47.89011 | 13.22190 | 14450 ft | 342 kts | 83° |
| 2026-05-04 02:08 | 47.89368 | 13.25682 | 14086 ft | 340 kts | 83° |
| 2026-05-04 02:08 | 47.89722 | 13.29162 | 13703 ft | 339 kts | 83° |
| 2026-05-04 02:08 | 47.90074 | 13.32633 | 13307 ft | 338 kts | 83° |
| 2026-05-04 02:08 | 47.90424 | 13.36086 | 12925 ft | 336 kts | 83° |
| 2026-05-04 02:09 | 47.90772 | 13.39530 | 12549 ft | 334 kts | 83° |
| 2026-05-04 02:09 | 47.91115 | 13.42944 | 12177 ft | 332 kts | 83° |
| 2026-05-04 02:09 | 47.91454 | 13.46327 | 11828 ft | 330 kts | 83° |
| 2026-05-04 02:09 | 47.91788 | 13.49707 | 11473 ft | 328 kts | 85° |
| 2026-05-04 02:10 | 47.91927 | 13.53077 | 11122 ft | 325 kts | 91° |
| 2026-05-04 02:10 | 47.91895 | 13.56431 | 10767 ft | 323 kts | 94° |
| 2026-05-04 02:10 | 47.91836 | 13.59753 | 10556 ft | 316 kts | 93° |
| 2026-05-04 02:10 | 47.91789 | 13.62985 | 10397 ft | 307 kts | 92° |
| 2026-05-04 02:11 | 47.91751 | 13.66115 | 10272 ft | 298 kts | 92° |
| 2026-05-04 02:11 | 47.91729 | 13.69173 | 10154 ft | 290 kts | 93° |
| 2026-05-04 02:11 | 47.91712 | 13.72140 | 9996 ft | 284 kts | 92° |
| 2026-05-04 02:11 | 47.91694 | 13.75079 | 9686 ft | 283 kts | 91° |
| 2026-05-04 02:12 | 47.91678 | 13.77966 | 9410 ft | 281 kts | 92° |
| 2026-05-04 02:12 | 47.91661 | 13.80876 | 9135 ft | 280 kts | 91° |
| 2026-05-04 02:12 | 47.91643 | 13.83797 | 9078 ft | 285 kts | 91° |
| 2026-05-04 02:12 | 47.91623 | 13.86778 | 9039 ft | 288 kts | 91° |
| 2026-05-04 02:13 | 47.91602 | 13.89738 | 9027 ft | 284 kts | 92° |
| 2026-05-04 02:13 | 47.91582 | 13.92659 | 9025 ft | 280 kts | 92° |
| 2026-05-04 02:13 | 47.91561 | 13.95556 | 9030 ft | 280 kts | 91° |
| 2026-05-04 02:13 | 47.91539 | 13.98474 | 9043 ft | 283 kts | 92° |
| 2026-05-04 02:14 | 47.91516 | 14.01418 | 9050 ft | 285 kts | 92° |
| 2026-05-04 02:14 | 47.91492 | 14.04380 | 9037 ft | 286 kts | 91° |
| 2026-05-04 02:14 | 47.91469 | 14.07324 | 9034 ft | 282 kts | 92° |
| 2026-05-04 02:14 | 47.91444 | 14.10234 | 9025 ft | 280 kts | 91° |
| 2026-05-04 02:15 | 47.91420 | 14.13145 | 9037 ft | 281 kts | 91° |
| 2026-05-04 02:15 | 47.91393 | 14.16066 | 9048 ft | 282 kts | 91° |
| 2026-05-04 02:15 | 47.91366 | 14.18994 | 9040 ft | 283 kts | 91° |
| 2026-05-04 02:15 | 47.91339 | 14.21889 | 9048 ft | 283 kts | 91° |
| 2026-05-04 02:16 | 47.91310 | 14.24825 | 9048 ft | 283 kts | 91° |
| 2026-05-04 02:16 | 47.91281 | 14.27762 | 9046 ft | 283 kts | 91° |
| 2026-05-04 02:16 | 47.91251 | 14.30698 | 9051 ft | 283 kts | 91° |
| 2026-05-04 02:16 | 47.91221 | 14.33636 | 9044 ft | 282 kts | 91° |
| 2026-05-04 02:17 | 47.91201 | 14.35575 | 9042 ft | 282 kts | 91° |
| 2026-05-04 02:17 | 47.91169 | 14.38501 | 9039 ft | 282 kts | 91° |
| 2026-05-04 02:17 | 47.91137 | 14.41412 | 9034 ft | 281 kts | 91° |
| 2026-05-04 02:17 | 47.91103 | 14.44324 | 9055 ft | 280 kts | 91° |
| 2026-05-04 02:18 | 47.91069 | 14.47230 | 9058 ft | 280 kts | 91° |
| 2026-05-04 02:18 | 47.91034 | 14.50150 | 9042 ft | 282 kts | 92° |
| 2026-05-04 02:18 | 47.90998 | 14.53070 | 9039 ft | 282 kts | 91° |
| 2026-05-04 02:18 | 47.90962 | 14.55984 | 9041 ft | 282 kts | 91° |
| 2026-05-04 02:19 | 47.90924 | 14.58907 | 9038 ft | 281 kts | 91° |
| 2026-05-04 02:19 | 47.90887 | 14.61824 | 9042 ft | 281 kts | 91° |
| 2026-05-04 02:19 | 47.90848 | 14.64739 | 9045 ft | 281 kts | 91° |
| 2026-05-04 02:19 | 47.90810 | 14.67653 | 9038 ft | 281 kts | 91° |
| 2026-05-04 02:20 | 47.90770 | 14.70562 | 9042 ft | 281 kts | 91° |
| 2026-05-04 02:20 | 47.90730 | 14.73470 | 9044 ft | 280 kts | 91° |
| 2026-05-04 02:20 | 47.90689 | 14.76342 | 9048 ft | 280 kts | 91° |
| 2026-05-04 02:20 | 47.90647 | 14.79242 | 9059 ft | 280 kts | 91° |
| 2026-05-04 02:21 | 47.90603 | 14.82144 | 9047 ft | 280 kts | 91° |
| 2026-05-04 02:21 | 47.90559 | 14.85048 | 9048 ft | 280 kts | 91° |
| 2026-05-04 02:21 | 47.90514 | 14.87952 | 9045 ft | 280 kts | 91° |
| 2026-05-04 02:21 | 47.90469 | 14.90854 | 9056 ft | 280 kts | 91° |
| 2026-05-04 02:22 | 47.90423 | 14.93760 | 9048 ft | 281 kts | 91° |
| 2026-05-04 02:22 | 47.90376 | 14.96669 | 9062 ft | 281 kts | 91° |
| 2026-05-04 02:22 | 47.90328 | 14.99593 | 9051 ft | 282 kts | 91° |
| 2026-05-04 02:22 | 47.90280 | 15.02528 | 9065 ft | 284 kts | 91° |
| 2026-05-04 02:23 | 47.90230 | 15.05488 | 9068 ft | 285 kts | 91° |
| 2026-05-04 02:23 | 47.90179 | 15.08449 | 9074 ft | 286 kts | 91° |
| 2026-05-04 02:23 | 47.90128 | 15.11410 | 9062 ft | 287 kts | 91° |
| 2026-05-04 02:23 | 47.90076 | 15.14387 | 9065 ft | 287 kts | 91° |
| 2026-05-04 02:24 | 47.90023 | 15.17354 | 9048 ft | 286 kts | 91° |
| 2026-05-04 02:24 | 47.89969 | 15.20303 | 9058 ft | 284 kts | 91° |
| 2026-05-04 02:24 | 47.89916 | 15.23241 | 9054 ft | 283 kts | 91° |
| 2026-05-04 02:24 | 47.89862 | 15.26167 | 9070 ft | 282 kts | 91° |
| 2026-05-04 02:25 | 47.89808 | 15.29055 | 9063 ft | 282 kts | 91° |
| 2026-05-04 02:25 | 47.89751 | 15.32006 | 9065 ft | 281 kts | 91° |
| 2026-05-04 02:25 | 47.89695 | 15.34901 | 9062 ft | 281 kts | 91° |
| 2026-05-04 02:25 | 47.89641 | 15.37772 | 9056 ft | 281 kts | 91° |
| 2026-05-04 02:26 | 47.89587 | 15.40684 | 9069 ft | 282 kts | 92° |
| 2026-05-04 02:26 | 47.89529 | 15.43605 | 9073 ft | 283 kts | 92° |
| 2026-05-04 02:26 | 47.89473 | 15.46540 | 9057 ft | 284 kts | 92° |
| 2026-05-04 02:26 | 47.89321 | 15.49466 | 9046 ft | 283 kts | 101° |
| 2026-05-04 02:27 | 47.88895 | 15.52327 | 9016 ft | 282 kts | 105° |
| 2026-05-04 02:27 | 47.88395 | 15.55156 | 8982 ft | 283 kts | 106° |
| 2026-05-04 02:27 | 47.87887 | 15.57984 | 8932 ft | 283 kts | 106° |
| 2026-05-04 02:27 | 47.87384 | 15.60812 | 8898 ft | 281 kts | 105° |
| 2026-05-04 02:28 | 47.86890 | 15.63633 | 8864 ft | 280 kts | 105° |
| 2026-05-04 02:28 | 47.86406 | 15.66442 | 8812 ft | 280 kts | 105° |
| 2026-05-04 02:28 | 47.85925 | 15.69246 | 8775 ft | 279 kts | 105° |
| 2026-05-04 02:28 | 47.85447 | 15.72055 | 8755 ft | 279 kts | 105° |
| 2026-05-04 02:29 | 47.84971 | 15.74859 | 8717 ft | 279 kts | 105° |
| 2026-05-04 02:29 | 47.84495 | 15.77665 | 8675 ft | 280 kts | 105° |
| 2026-05-04 02:29 | 47.84025 | 15.80443 | 8642 ft | 280 kts | 105° |
| 2026-05-04 02:29 | 47.83549 | 15.83249 | 8601 ft | 279 kts | 105° |
| 2026-05-04 02:30 | 47.83076 | 15.86039 | 8578 ft | 278 kts | 105° |
| 2026-05-04 02:30 | 47.82602 | 15.88833 | 8502 ft | 278 kts | 105° |
| 2026-05-04 02:30 | 47.82129 | 15.91613 | 8493 ft | 277 kts | 106° |
| 2026-05-04 02:30 | 47.81656 | 15.94392 | 8457 ft | 277 kts | 106° |
| 2026-05-04 02:31 | 47.81182 | 15.97171 | 8420 ft | 277 kts | 105° |
| 2026-05-04 02:31 | 47.80707 | 15.99945 | 8391 ft | 277 kts | 105° |
| 2026-05-04 02:31 | 47.80232 | 16.02721 | 8344 ft | 277 kts | 105° |
| 2026-05-04 02:31 | 47.79757 | 16.05498 | 8307 ft | 277 kts | 106° |
| 2026-05-04 02:32 | 47.79282 | 16.08270 | 8266 ft | 276 kts | 106° |
| 2026-05-04 02:32 | 47.78806 | 16.11038 | 8231 ft | 276 kts | 105° |
| 2026-05-04 02:32 | 47.78332 | 16.13795 | 8195 ft | 275 kts | 106° |
| 2026-05-04 02:32 | 47.77858 | 16.16548 | 8160 ft | 275 kts | 106° |
| 2026-05-04 02:33 | 47.77382 | 16.19298 | 8131 ft | 275 kts | 105° |
| 2026-05-04 02:33 | 47.76956 | 16.22060 | 8082 ft | 274 kts | 96° |
| 2026-05-04 02:33 | 47.77241 | 16.24831 | 8037 ft | 273 kts | 69° |
| 2026-05-04 02:33 | 47.78122 | 16.27334 | 8019 ft | 274 kts | 62° |
| 2026-05-04 02:34 | 47.79100 | 16.29781 | 7973 ft | 276 kts | 61° |
| 2026-05-04 02:34 | 47.80087 | 16.32231 | 7928 ft | 276 kts | 61° |
| 2026-05-04 02:34 | 47.81072 | 16.34692 | 7874 ft | 277 kts | 61° |
| 2026-05-04 02:34 | 47.82053 | 16.37164 | 7826 ft | 278 kts | 61° |
| 2026-05-04 02:35 | 47.83016 | 16.39609 | 7782 ft | 277 kts | 62° |
| 2026-05-04 02:35 | 47.83987 | 16.42083 | 7724 ft | 277 kts | 62° |
| 2026-05-04 02:35 | 47.84957 | 16.44566 | 7693 ft | 276 kts | 62° |
| 2026-05-04 02:35 | 47.85920 | 16.47039 | 7664 ft | 276 kts | 62° |
| 2026-05-04 02:36 | 47.86880 | 16.49503 | 7605 ft | 275 kts | 62° |
| 2026-05-04 02:36 | 47.87840 | 16.51968 | 7562 ft | 275 kts | 62° |
| 2026-05-04 02:36 | 47.88795 | 16.54431 | 7504 ft | 273 kts | 61° |
| 2026-05-04 02:36 | 47.89738 | 16.56862 | 7473 ft | 269 kts | 61° |
| 2026-05-04 02:37 | 47.90667 | 16.59254 | 7448 ft | 265 kts | 61° |
| 2026-05-04 02:37 | 47.91587 | 16.61626 | 7413 ft | 264 kts | 61° |
| 2026-05-04 02:37 | 47.92507 | 16.64002 | 7373 ft | 265 kts | 62° |
| 2026-05-04 02:37 | 47.93429 | 16.66386 | 7336 ft | 265 kts | 62° |
| 2026-05-04 02:38 | 47.94348 | 16.68763 | 7293 ft | 265 kts | 62° |
| 2026-05-04 02:38 | 47.95268 | 16.71145 | 7261 ft | 265 kts | 62° |
| 2026-05-04 02:38 | 47.96190 | 16.73533 | 7210 ft | 266 kts | 62° |
| 2026-05-04 02:38 | 47.97112 | 16.75927 | 7164 ft | 266 kts | 62° |
| 2026-05-04 02:39 | 47.98035 | 16.78322 | 7124 ft | 266 kts | 62° |
| 2026-05-04 02:39 | 47.99137 | 16.80543 | 7047 ft | 270 kts | 40° |
| 2026-05-04 02:39 | 48.00828 | 16.81705 | 7023 ft | 271 kts | 9° |
| 2026-05-04 02:39 | 48.02698 | 16.81491 | 6988 ft | 272 kts | 342° |
| 2026-05-04 02:40 | 48.04410 | 16.80314 | 6970 ft | 272 kts | 332° |
| 2026-05-04 02:40 | 48.06085 | 16.78982 | 6927 ft | 274 kts | 332° |
| 2026-05-04 02:40 | 48.07772 | 16.77649 | 6875 ft | 275 kts | 332° |
| 2026-05-04 02:40 | 48.09471 | 16.76323 | 6825 ft | 276 kts | 332° |
| 2026-05-04 02:41 | 48.11178 | 16.74999 | 6780 ft | 276 kts | 332° |
| 2026-05-04 02:41 | 48.12888 | 16.73676 | 6732 ft | 277 kts | 333° |
| 2026-05-04 02:41 | 48.14601 | 16.72353 | 6689 ft | 277 kts | 333° |
| 2026-05-04 02:41 | 48.16294 | 16.71045 | 6643 ft | 277 kts | 332° |
| 2026-05-04 02:42 | 48.18029 | 16.69705 | 6596 ft | 277 kts | 332° |
| 2026-05-04 02:42 | 48.19743 | 16.68380 | 6547 ft | 277 kts | 332° |
| 2026-05-04 02:42 | 48.21434 | 16.67071 | 6496 ft | 277 kts | 332° |
| 2026-05-04 02:42 | 48.23186 | 16.65887 | 6445 ft | 276 kts | 342° |
| 2026-05-04 02:43 | 48.25031 | 16.65099 | 6410 ft | 275 kts | 346° |
| 2026-05-04 02:43 | 48.26886 | 16.64388 | 6355 ft | 275 kts | 346° |
| 2026-05-04 02:43 | 48.28762 | 16.63657 | 6312 ft | 275 kts | 345° |
| 2026-05-04 02:43 | 48.30604 | 16.62911 | 6262 ft | 275 kts | 345° |
| 2026-05-04 02:44 | 48.32425 | 16.62156 | 6212 ft | 274 kts | 344° |
| 2026-05-04 02:44 | 48.34263 | 16.61384 | 6172 ft | 274 kts | 344° |
| 2026-05-04 02:44 | 48.36099 | 16.60611 | 6124 ft | 274 kts | 344° |
| 2026-05-04 02:44 | 48.37932 | 16.59838 | 6074 ft | 274 kts | 344° |
| 2026-05-04 02:45 | 48.39768 | 16.59062 | 6028 ft | 274 kts | 344° |
| 2026-05-04 02:45 | 48.41604 | 16.58286 | 5983 ft | 274 kts | 344° |
| 2026-05-04 02:45 | 48.43443 | 16.57507 | 5934 ft | 274 kts | 344° |
| 2026-05-04 02:45 | 48.45270 | 16.56734 | 5883 ft | 269 kts | 345° |
| 2026-05-04 02:46 | 48.47028 | 16.55990 | 5839 ft | 255 kts | 344° |
| 2026-05-04 02:46 | 48.48690 | 16.55285 | 5721 ft | 242 kts | 344° |
| 2026-05-04 02:46 | 48.50273 | 16.54614 | 5611 ft | 230 kts | 344° |
| 2026-05-04 02:46 | 48.51769 | 16.53978 | 5575 ft | 218 kts | 344° |
| 2026-05-04 02:47 | 48.53067 | 16.52943 | 5540 ft | 216 kts | 309° |
| 2026-05-04 02:47 | 48.53699 | 16.50927 | 5588 ft | 215 kts | 273° |
| 2026-05-04 02:47 | 48.53572 | 16.48692 | 5620 ft | 214 kts | 251° |
| 2026-05-04 02:47 | 48.53163 | 16.46531 | 5590 ft | 214 kts | 250° |
| 2026-05-04 02:48 | 48.52749 | 16.44381 | 5556 ft | 212 kts | 249° |
| 2026-05-04 02:48 | 48.52022 | 16.42517 | 5486 ft | 203 kts | 214° |
| 2026-05-04 02:48 | 48.50768 | 16.41736 | 5501 ft | 194 kts | 184° |
| 2026-05-04 02:48 | 48.49441 | 16.41930 | 5452 ft | 193 kts | 163° |
| 2026-05-04 02:49 | 48.48151 | 16.42495 | 5444 ft | 194 kts | 164° |
| 2026-05-04 02:49 | 48.46882 | 16.43029 | 5392 ft | 183 kts | 164° |
| 2026-05-04 02:49 | 48.45688 | 16.43532 | 5307 ft | 175 kts | 164° |
| 2026-05-04 02:49 | 48.44521 | 16.44026 | 5257 ft | 174 kts | 164° |
| 2026-05-04 02:50 | 48.43358 | 16.44518 | 5210 ft | 173 kts | 164° |
| 2026-05-04 02:50 | 48.42216 | 16.45002 | 5214 ft | 174 kts | 164° |
| 2026-05-04 02:50 | 48.41042 | 16.45501 | 5174 ft | 180 kts | 164° |
| 2026-05-04 02:50 | 48.39855 | 16.46003 | 5181 ft | 175 kts | 164° |
| 2026-05-04 02:51 | 48.38720 | 16.46482 | 5207 ft | 162 kts | 164° |
| 2026-05-04 02:51 | 48.37668 | 16.46928 | 5184 ft | 153 kts | 164° |
| 2026-05-04 02:51 | 48.36652 | 16.47359 | 5178 ft | 151 kts | 164° |
| 2026-05-04 02:51 | 48.35642 | 16.47786 | 5233 ft | 151 kts | 164° |
| 2026-05-04 02:52 | 48.34605 | 16.48226 | 5089 ft | 155 kts | 164° |
| 2026-05-04 02:52 | 48.33572 | 16.48664 | 4897 ft | 153 kts | 164° |
| 2026-05-04 02:52 | 48.32558 | 16.49093 | 4693 ft | 150 kts | 164° |
| 2026-05-04 02:52 | 48.31557 | 16.49518 | 4493 ft | 149 kts | 164° |
| 2026-05-04 02:53 | 48.30562 | 16.49939 | 4294 ft | 149 kts | 164° |
| 2026-05-04 02:53 | 48.29563 | 16.50362 | 4095 ft | 149 kts | 164° |
| 2026-05-04 02:53 | 48.28566 | 16.50785 | 3896 ft | 149 kts | 164° |
| 2026-05-04 02:53 | 48.27578 | 16.51204 | 3687 ft | 151 kts | 165° |
| 2026-05-04 02:54 | 48.26555 | 16.51637 | 3487 ft | 153 kts | 165° |
| 2026-05-04 02:54 | 48.25532 | 16.52071 | 3291 ft | 152 kts | 165° |
| 2026-05-04 02:54 | 48.24517 | 16.52501 | 3076 ft | 151 kts | 165° |
| 2026-05-04 02:54 | 48.23512 | 16.52927 | 2870 ft | 150 kts | 165° |
| 2026-05-04 02:55 | 48.21582 | 16.53745 | 2488 ft | 136 kts | 165° |
| 2026-05-04 02:55 | 48.20682 | 16.54126 | 2308 ft | 135 kts | 165° |
| 2026-05-04 02:55 | 48.19770 | 16.54513 | 2129 ft | 137 kts | 165° |
| 2026-05-04 02:56 | 48.18850 | 16.54903 | 1940 ft | 137 kts | 165° |
| 2026-05-04 02:56 | 48.17940 | 16.55289 | 1760 ft | 136 kts | 165° |
| 2026-05-04 02:56 | 48.17031 | 16.55674 | 1576 ft | 136 kts | 164° |
| 2026-05-04 02:56 | 48.16118 | 16.56062 | 1386 ft | 138 kts | 164° |
| 2026-05-04 02:57 | 48.15203 | 16.56449 | 1226 ft | 137 kts | 164° |
| 2026-05-04 02:57 | 48.14295 | 16.56847 | 1022 ft | 136 kts | 161° |
| 2026-05-04 02:57 | 48.13391 | 16.57241 | 851 ft | 134 kts | 165° |
| 2026-05-04 02:57 | 48.12505 | 16.57604 | 703 ft | 129 kts | 163° |
| 2026-05-04 02:58 | 48.11620 | 16.57973 | 617 ft | 125 kts | 163° |
| 2026-05-04 02:58 | 48.11156 | 16.58173 | 617 ft | 0 kts | 164° |
| 2026-05-04 02:58 | 48.11116 | 16.58190 | 610 ft | 27 kts | 163° |
| 2026-05-04 02:59 | 48.10941 | 16.58258 | 616 ft | 21 kts | 167° |
| 2026-05-04 02:59 | 48.10778 | 16.58289 | 604 ft | 23 kts | 180° |
| 2026-05-04 02:59 | 48.10621 | 16.58259 | 617 ft | 23 kts | 195° |
| 2026-05-04 02:59 | 48.10554 | 16.58179 | 607 ft | 12 kts | 269° |
| 2026-05-04 03:00 | 48.10618 | 16.58112 | 604 ft | 12 kts | 340° |
| 2026-05-04 03:00 | 48.10694 | 16.58081 | 608 ft | 11 kts | 344° |
| 2026-05-04 03:00 | 48.10768 | 16.58050 | 603 ft | 11 kts | 344° |
| 2026-05-04 03:00 | 48.10840 | 16.58020 | 613 ft | 11 kts | 343° |
| 2026-05-04 03:01 | 48.10916 | 16.57985 | 608 ft | 11 kts | 343° |
| 2026-05-04 03:01 | 48.10991 | 16.57952 | 605 ft | 11 kts | 344° |
| 2026-05-04 03:01 | 48.11062 | 16.57922 | 603 ft | 10 kts | 344° |
| 2026-05-04 03:01 | 48.11128 | 16.57895 | 615 ft | 10 kts | 345° |
| 2026-05-04 03:02 | 48.11190 | 16.57870 | 603 ft | 9 kts | 345° |
| 2026-05-04 03:02 | 48.11257 | 16.57843 | 606 ft | 12 kts | 345° |
| 2026-05-04 03:02 | 48.11357 | 16.57802 | 603 ft | 17 kts | 344° |
| 2026-05-04 03:02 | 48.11477 | 16.57751 | 611 ft | 19 kts | 344° |
| 2026-05-04 03:03 | 48.11604 | 16.57698 | 606 ft | 18 kts | 344° |
| 2026-05-04 03:03 | 48.11725 | 16.57645 | 603 ft | 18 kts | 344° |
| 2026-05-04 03:03 | 48.11841 | 16.57595 | 613 ft | 17 kts | 336° |
| 2026-05-04 03:03 | 48.11847 | 16.57518 | 603 ft | 10 kts | 242° |
| 2026-05-04 03:04 | 48.11815 | 16.57385 | 610 ft | 15 kts | 264° |
| 2026-05-04 03:04 | 48.11831 | 16.57287 | 610 ft | 15 kts | 297° |
| 2026-05-04 03:04 | 48.11876 | 16.57155 | 610 ft | 14 kts | 296° |
| 2026-05-04 03:04 | 48.11917 | 16.57029 | 611 ft | 5 kts | 296° |
| 2026-05-04 03:05 | 48.11930 | 16.56988 | 603 ft | 4 kts | 296° |
| 2026-05-04 03:05 | 48.11944 | 16.56947 | 608 ft | 5 kts | 296° |
| 2026-05-04 03:05 | 48.11962 | 16.56893 | 618 ft | 6 kts | 297° |
| 2026-05-04 03:05 | 48.11968 | 16.56834 | 607 ft | 7 kts | 245° |
| 2026-05-04 03:06 | 48.11916 | 16.56780 | 614 ft | 12 kts | 208° |
| 2026-05-04 03:06 | 48.11892 | 16.56763 | 603 ft | 0 kts | 206° |